Flight Track Log - Related Links

Times and Time Zones

All times are in EDT time to prevent confusion due to time zone crossing. See the SWA2702 flight status page for this flight to view local times or setup timezone preferences in your user account.

Time Position Orientation Groundspeed Altitude Reporting Facility
EDT Latitude Longitude Course Direction KTS MPH feet Rate Location/Type
Tue 11:07:19 AM 33.6500 -117.8833 193° South 144 166 1,400  Level Southern California TRACON
Tue 11:08:50 AM 33.5919 -117.8992 193° South 153 176 3,600 1,961 Climbing Los Angeles Center
Tue 11:09:52 AM 33.5314 -117.9353 206° Southwest 237 273 6,400 3,097 Climbing Los Angeles Center
Tue 11:10:54 AM 33.4722 -117.9794 212° Southwest 251 289 10,000 2,855 Climbing Los Angeles Center
Tue 11:11:56 AM 33.3944 -118.0369 212° Southwest 309 356 12,300 2,613 Climbing Los Angeles Center
Tue 11:12:58 AM 33.3372 -118.1197 230° Southwest 343 395 15,400 2,736 Climbing Los Angeles Center
Tue 11:14:01 AM 33.3536 -118.2575 278° West 346 398 18,000 2,226 Climbing Los Angeles Center
Tue 11:15:02 AM 33.3681 -118.3736 279° West 350 403 20,000 2,195 Climbing Los Angeles Center
Tue 11:16:04 AM 33.4269 -118.4664 307° West 362 417 22,500 2,129 Climbing Los Angeles Center
Tue 11:17:06 AM 33.5067 -118.5564 317° Northwest 381 438 24,400 1,984 Climbing Los Angeles Center
Tue 11:18:08 AM 33.5875 -118.6544 315° West 403 464 26,600 2,032 Climbing Los Angeles Center
Tue 11:19:10 AM 33.6706 -118.7542 315° West 416 479 28,600 1,968 Climbing Los Angeles Center
Tue 11:20:13 AM 33.7547 -118.8536 316° Northwest 421 484 30,700 2,032 Climbing Los Angeles Center
Tue 11:21:14 AM 33.8381 -118.9544 315° West 423 487 32,800 2,000 Climbing Los Angeles Center
Tue 11:22:16 AM 33.9369 -119.0733 315° West 418 481 34,800 1,548 Climbing Los Angeles Center
Tue 11:23:18 AM 34.0186 -119.1744 314° West 420 483 36,000 581 Climbing Los Angeles Center
Tue 11:24:20 AM 34.1019 -119.2742 315° West 422 486 36,000  Level Los Angeles Center
Tue 11:25:22 AM 34.1839 -119.3742 315° West 420 483 36,000  Level Los Angeles Center
Tue 11:26:24 AM 34.2664 -119.4747 315° West 421 484 36,000  Level Los Angeles Center
Tue 11:27:26 AM 34.3469 -119.5756 314° West 418 481 36,000  Level Los Angeles Center
Tue 11:28:29 AM 34.4450 -119.6944 315° West 415 478 36,000  Level Los Angeles Center
Tue 11:29:31 AM 34.5272 -119.7936 315° West 416 479 36,000  Level Los Angeles Center
Tue 11:30:33 AM 34.6181 -119.8917 318° Northwest 418 481 36,000  Level Los Angeles Center
Tue 11:31:35 AM 34.7053 -119.9853 319° Northwest 420 483 36,000  Level Los Angeles Center
Tue 11:32:37 AM 34.7914 -120.0794 318° Northwest 417 480 36,000  Level Los Angeles Center
Tue 11:33:39 AM 34.8731 -120.1692 318° Northwest 417 480 36,000  Level Los Angeles Center
Tue 11:34:41 AM 34.9747 -120.2811 318° Northwest 415 478 36,000  Level Los Angeles Center
Tue 11:35:43 AM 35.0589 -120.3733 318° Northwest 412 474 36,000  Level Los Angeles Center
Tue 11:36:45 AM 35.1433 -120.4667 318° Northwest 412 474 36,000  Level Los Angeles Center
Tue 11:37:47 AM 35.2283 -120.5611 318° Northwest 416 479 36,000  Level Los Angeles Center
Tue 11:38:49 AM 35.3208 -120.6442 324° Northwest 416 479 36,000  Level Los Angeles Center
Tue 11:39:51 AM 35.4331 -120.7464 323° Northwest 420 483 36,000  Level Los Angeles Center
Tue 11:40:12 AM 35.4661 -120.7753 325° Northwest 419 482 36,000  Level Oakland Center
Tue 11:41:13 AM 35.5614 -120.8597 324° Northwest 421 484 36,000  Level Oakland Center
Tue 11:42:15 AM 35.6556 -120.9458 323° Northwest 419 482 36,000  Level Oakland Center
Tue 11:43:16 AM 35.7489 -121.0342 322° Northwest 419 482 36,000  Level Oakland Center
Tue 11:44:17 AM 35.8439 -121.1200 324° Northwest 419 482 36,000  Level Oakland Center
Tue 11:45:19 AM 35.9375 -121.2075 323° Northwest 419 482 36,000 -780 Level Oakland Center
Tue 11:46:20 AM 36.0300 -121.2931 323° Northwest 412 474 34,400 -1,869 Descending Oakland Center
Tue 11:47:21 AM 36.1211 -121.3786 323° Northwest 410 472 32,200 -2,049 Descending Oakland Center
Tue 11:48:23 AM 36.2111 -121.4603 324° Northwest 399 459 30,200 -2,146 Descending Oakland Center
Tue 11:49:24 AM 36.3133 -121.5578 322° Northwest 386 444 27,800 -2,115 Descending Oakland Center
Tue 11:50:25 AM 36.3956 -121.6333 324° Northwest 370 426 25,900 -1,805 Descending Oakland Center
Tue 11:51:27 AM 36.4750 -121.7100 322° Northwest 359 413 24,100 -1,756 Descending Oakland Center
Tue 11:52:28 AM 36.5528 -121.7806 324° Northwest 345 397 22,300 -1,773 Descending Oakland Center
Tue 11:52:55 AM 36.5833 -121.8167 317° Northwest 341 392 21,500 -1,705 Descending Northern Cal TRACON
Tue 11:53:56 AM 36.6667 -121.8833 327° Northwest 332 382 19,800 -1,686 Descending Northern Cal TRACON
Tue 11:54:56 AM 36.7333 -121.9500 321° Northwest 324 373 18,100 -1,684 Descending Northern Cal TRACON
Tue 11:55:50 AM 36.8167 -121.9833 342° North 311 358 16,600 -1,632 Descending Northern Cal TRACON
Tue 11:56:50 AM 36.9000 -122.0000 351° North 305 351 15,000 -1,543 Descending Northern Cal TRACON
Tue 11:57:35 AM 36.9519 -122.0167 346° North 302 348 13,900 -1,514 Descending Oakland Center
Tue 11:58:37 AM 37.0331 -122.0392 348° North 299 344 12,300 -1,171 Descending Oakland Center
Tue 11:59:38 AM 37.1117 -122.0600 348° North 289 333 11,500 -738 Descending Oakland Center
Tue 12:00:39 PM 37.1792 -122.0786 348° North 252 290 10,800 -780 Descending Oakland Center
Tue 12:01:41 PM 37.2425 -122.0936 349° North 234 269 9,900 -1,122 Descending Oakland Center
Tue 12:02:42 PM 37.3028 -122.1086 349° North 222 255 8,500 -1,512 Descending Oakland Center
Tue 12:03:44 PM 37.3758 -122.1297 347° North 224 258 6,800 -1,415 Descending Oakland Center
Tue 12:04:45 PM 37.4339 -122.1444 349° North 217 250 5,600 -1,377 Descending Oakland Center
Tue 12:05:46 PM 37.4897 -122.1592 348° North 209 241 4,000 -1,366 Descending Oakland Center
Tue 12:06:48 PM 37.5367 -122.1983 327° Northwest 207 238 2,800 -1,122 Descending Oakland Center
Tue 12:07:49 PM 37.5672 -122.2533 305° West 200 230 1,700 -927 Descending Oakland Center
Tue 12:08:51 PM 37.5886 -122.3058 297° West 184 212 900 -780 Descending Oakland Center
Tue 12:09:52 PM 37.6064 -122.3497 297° West 161 185 100 -787 Descending Oakland Center
Tue 12:11:00 PM 37.6167 -122.3667 322° Northwest  Level FlightAware Approximate
Tue 12:18:00 PM 37.6191 -122.3752 322° Northwest  Level Estimated

Login

Don't have an account? Register now (free) for customized features, flight alerts, and more!